createdAt,value
2023-07-18T00:00:16.164Z,26.99
2023-07-18T00:02:54.133Z,26.96
2023-07-18T00:05:25.471Z,27.01
2023-07-18T00:07:57.491Z,27.02
2023-07-18T00:10:27.228Z,26.94
2023-07-18T00:13:00.286Z,26.90
2023-07-18T00:15:30.095Z,26.89
2023-07-18T00:18:00.451Z,26.81
2023-07-18T00:20:29.131Z,26.46
2023-07-18T00:23:01.213Z,26.77
2023-07-18T00:25:31.432Z,26.83
2023-07-18T00:28:01.228Z,26.89
2023-07-18T00:30:30.238Z,26.90
2023-07-18T00:33:03.621Z,26.70
2023-07-18T00:35:32.751Z,26.69
2023-07-18T00:38:04.416Z,26.81
2023-07-18T00:40:35.307Z,26.83
2023-07-18T00:43:04.291Z,26.84
2023-07-18T00:45:32.989Z,26.74
2023-07-18T00:48:02.819Z,26.75
2023-07-18T00:50:35.210Z,26.52
2023-07-18T00:53:10.024Z,26.70
2023-07-18T00:55:39.846Z,26.67
2023-07-18T00:58:11.228Z,26.64
2023-07-18T01:00:39.615Z,26.59
2023-07-18T01:03:13.994Z,26.57
2023-07-18T01:05:43.051Z,26.46
2023-07-18T01:08:13.024Z,26.52
2023-07-18T01:10:43.062Z,26.53
2023-07-18T01:13:15.283Z,26.55
2023-07-18T01:15:45.628Z,26.43
2023-07-18T01:18:16.549Z,26.45
2023-07-18T01:20:47.675Z,26.56
2023-07-18T01:23:18.158Z,26.42
2023-07-18T01:25:47.643Z,26.49
2023-07-18T01:28:18.535Z,26.54
2023-07-18T01:30:47.985Z,26.41
2023-07-18T01:33:18.386Z,26.44
2023-07-18T01:35:47.314Z,26.48
2023-07-18T01:38:23.283Z,26.51
2023-07-18T01:40:52.279Z,26.40
2023-07-18T01:43:21.162Z,26.41
2023-07-18T01:45:49.898Z,26.37
2023-07-18T01:48:23.969Z,26.52
2023-07-18T01:50:52.579Z,26.55
2023-07-18T01:53:28.788Z,26.38
2023-07-18T01:55:58.503Z,26.38
2023-07-18T01:58:36.992Z,26.45
2023-07-18T02:01:08.932Z,26.33
2023-07-18T02:03:38.528Z,26.43
2023-07-18T02:06:07.592Z,26.38
2023-07-18T02:08:38.733Z,26.31
2023-07-18T02:11:11.888Z,26.20
2023-07-18T02:13:40.614Z,26.37
2023-07-18T02:16:13.618Z,26.36
2023-07-18T02:18:44.868Z,26.14
2023-07-18T02:21:14.681Z,26.20
2023-07-18T02:23:47.106Z,26.21
2023-07-18T02:26:18.051Z,26.01
2023-07-18T02:28:46.795Z,26.04
2023-07-18T02:31:18.691Z,26.23
2023-07-18T02:33:48.434Z,26.03
2023-07-18T02:36:19.188Z,26.03
2023-07-18T02:38:49.591Z,26.00
2023-07-18T02:41:20.020Z,26.14
2023-07-18T02:43:49.507Z,26.15
2023-07-18T02:46:21.367Z,26.13
2023-07-18T02:48:52.622Z,26.05
2023-07-18T02:51:22.055Z,26.07
2023-07-18T02:53:52.630Z,25.96
2023-07-18T02:56:21.603Z,26.17
2023-07-18T02:58:50.793Z,26.10
2023-07-18T03:01:21.295Z,26.05
2023-07-18T03:03:55.377Z,26.10
2023-07-18T03:06:26.425Z,25.87
2023-07-18T03:08:56.969Z,26.02
2023-07-18T03:11:26.823Z,26.01
2023-07-18T03:13:56.412Z,25.77
2023-07-18T03:16:31.102Z,25.89
2023-07-18T03:19:00.661Z,26.00
2023-07-18T03:21:31.427Z,25.87
2023-07-18T03:24:01.781Z,25.95
2023-07-18T03:26:32.619Z,26.16
2023-07-18T03:29:01.565Z,26.27
2023-07-18T03:31:31.213Z,26.32
2023-07-18T03:34:01.258Z,26.37
2023-07-18T03:36:39.445Z,26.29
2023-07-18T03:39:11.559Z,26.26
2023-07-18T03:41:48.376Z,26.32
2023-07-18T03:44:18.036Z,26.26
2023-07-18T03:46:49.192Z,26.07
2023-07-18T03:49:21.739Z,26.29
2023-07-18T03:51:50.700Z,26.36
2023-07-18T03:54:22.651Z,26.32
2023-07-18T03:56:52.497Z,26.24
2023-07-18T03:59:24.823Z,26.24
2023-07-18T04:01:54.116Z,25.94
2023-07-18T04:04:23.159Z,26.07
2023-07-18T04:06:51.878Z,26.20
2023-07-18T04:09:24.972Z,26.23
2023-07-18T04:11:53.599Z,26.29
2023-07-18T04:14:25.438Z,26.29
2023-07-18T04:16:54.410Z,26.33
2023-07-18T04:19:32.491Z,26.18
2023-07-18T04:22:01.461Z,26.44
2023-07-18T04:24:33.487Z,26.40
2023-07-18T04:27:02.143Z,26.60
2023-07-18T04:29:31.087Z,26.96
2023-07-18T04:31:59.523Z,26.86
2023-07-18T04:34:32.550Z,26.84
2023-07-18T04:37:01.563Z,27.28
2023-07-18T04:39:33.244Z,26.95
2023-07-18T04:42:03.425Z,27.03
2023-07-18T04:44:39.116Z,27.06
2023-07-18T04:47:12.061Z,27.34
2023-07-18T04:49:44.202Z,28.01
2023-07-18T04:52:17.003Z,28.59
2023-07-18T04:54:45.928Z,28.75
2023-07-18T04:57:25.696Z,28.91
2023-07-18T04:59:55.950Z,29.62
2023-07-18T05:02:25.823Z,30.26
2023-07-18T05:04:54.207Z,30.95
2023-07-18T05:07:24.664Z,31.31
2023-07-18T05:09:53.080Z,30.76
2023-07-18T05:12:26.995Z,31.45
2023-07-18T05:14:55.880Z,31.44
2023-07-18T05:17:25.702Z,31.54
2023-07-18T05:19:54.806Z,31.62
2023-07-18T05:22:29.171Z,31.75
2023-07-18T05:24:57.930Z,31.67
2023-07-18T05:27:30.543Z,31.10
2023-07-18T05:29:59.224Z,31.23
2023-07-18T05:32:30.078Z,29.88
2023-07-18T05:35:00.011Z,30.04
2023-07-18T05:37:32.129Z,29.96
2023-07-18T05:40:01.431Z,30.13
2023-07-18T05:42:34.992Z,29.62
2023-07-18T05:45:03.913Z,29.58
2023-07-18T05:47:34.207Z,29.44
2023-07-18T05:50:04.168Z,28.99
2023-07-18T05:52:39.601Z,29.03
2023-07-18T05:55:09.386Z,29.06
2023-07-18T05:57:44.077Z,29.18
2023-07-18T06:00:22.392Z,29.12
2023-07-18T06:02:51.174Z,28.93
2023-07-18T06:05:22.334Z,29.08
2023-07-18T06:07:50.924Z,29.23
2023-07-18T06:10:22.252Z,28.70
2023-07-18T06:12:52.550Z,28.36
2023-07-18T06:15:25.417Z,28.34
2023-07-18T06:17:54.372Z,28.18
2023-07-18T06:20:26.502Z,28.09
2023-07-18T06:22:56.220Z,27.98
2023-07-18T06:25:28.094Z,27.82
2023-07-18T06:27:59.288Z,27.81
2023-07-18T06:30:28.431Z,27.70
2023-07-18T06:32:57.180Z,27.94
2023-07-18T06:35:31.020Z,28.13
2023-07-18T06:37:59.992Z,28.23
2023-07-18T06:40:34.197Z,28.39
2023-07-18T06:43:04.856Z,28.15
2023-07-18T06:45:33.967Z,28.06
2023-07-18T06:48:04.147Z,28.29
2023-07-18T06:50:33.977Z,28.42
2023-07-18T06:53:02.843Z,28.66
2023-07-18T06:55:32.835Z,28.35
2023-07-18T06:58:02.215Z,28.47
2023-07-18T07:00:37.759Z,28.72
2023-07-18T07:03:08.132Z,28.72
2023-07-18T07:05:39.797Z,28.75
2023-07-18T07:08:10.134Z,28.75
2023-07-18T07:10:43.144Z,28.92
2023-07-18T07:13:11.719Z,29.00
2023-07-18T07:15:40.954Z,28.83
2023-07-18T07:18:10.938Z,28.75
2023-07-18T07:20:39.861Z,28.95
2023-07-18T07:23:09.444Z,28.53
2023-07-18T07:25:41.542Z,29.10
2023-07-18T07:28:12.963Z,29.17
2023-07-18T07:30:42.233Z,29.27
2023-07-18T07:33:13.987Z,29.16
2023-07-18T07:35:44.584Z,28.84
2023-07-18T07:38:13.179Z,28.98
2023-07-18T07:40:48.155Z,28.89
2023-07-18T07:43:17.082Z,29.17
2023-07-18T07:45:52.219Z,28.93
2023-07-18T07:48:30.461Z,28.69
2023-07-18T07:50:59.494Z,28.93
2023-07-18T07:53:29.298Z,29.19
2023-07-18T07:56:00.800Z,29.44
2023-07-18T07:58:34.082Z,29.01
2023-07-18T08:01:02.846Z,29.32
2023-07-18T08:03:36.083Z,29.37
2023-07-18T08:06:04.814Z,29.45
2023-07-18T08:08:33.732Z,29.38
2023-07-18T08:11:02.728Z,29.53
2023-07-18T08:13:32.097Z,29.50
2023-07-18T08:16:01.210Z,29.64
2023-07-18T08:18:30.314Z,29.68
2023-07-18T08:21:00.017Z,29.51
2023-07-18T08:23:39.499Z,29.77
2023-07-18T08:26:10.914Z,29.22
2023-07-18T08:28:39.858Z,29.41
2023-07-18T08:31:08.891Z,29.46
2023-07-18T08:33:45.000Z,29.42
2023-07-18T08:36:14.984Z,29.43
2023-07-18T08:38:51.354Z,29.30
2023-07-18T08:41:23.076Z,29.41
2023-07-18T08:43:52.900Z,29.35
2023-07-18T08:46:24.807Z,29.13
2023-07-18T08:48:55.521Z,29.48
2023-07-18T08:51:36.874Z,29.67
2023-07-18T08:54:08.027Z,29.64
2023-07-18T08:56:41.775Z,29.86
2023-07-18T08:59:10.471Z,30.11
2023-07-18T09:01:47.381Z,29.86
2023-07-18T09:04:16.423Z,30.15
2023-07-18T09:06:52.109Z,29.96
2023-07-18T09:09:24.819Z,30.09
2023-07-18T09:12:04.050Z,30.24
2023-07-18T09:14:34.689Z,30.51
2023-07-18T09:17:11.232Z,30.79
2023-07-18T09:19:44.038Z,30.84
2023-07-18T09:22:14.819Z,30.62
2023-07-18T09:24:46.023Z,30.80
2023-07-18T09:27:18.735Z,30.92
2023-07-18T09:29:53.451Z,30.72
2023-07-18T09:32:30.686Z,31.14
2023-07-18T09:35:00.165Z,31.18
2023-07-18T09:37:31.016Z,31.01
2023-07-18T09:40:00.312Z,30.77
2023-07-18T09:42:36.023Z,30.90
2023-07-18T09:45:11.659Z,30.96
2023-07-18T09:47:41.217Z,31.03
2023-07-18T09:50:10.293Z,31.15
2023-07-18T09:52:41.743Z,31.38
2023-07-18T09:55:15.598Z,31.29
2023-07-18T09:57:44.207Z,30.99
2023-07-18T10:00:20.612Z,31.09
2023-07-18T10:02:49.664Z,31.13
2023-07-18T10:05:18.732Z,31.41
2023-07-18T10:07:48.768Z,31.59
2023-07-18T10:10:22.530Z,31.68
2023-07-18T10:13:06.837Z,31.56
2023-07-18T10:16:00.534Z,31.16
2023-07-18T10:18:31.486Z,31.34
2023-07-18T10:21:00.751Z,31.41
2023-07-18T10:23:43.029Z,31.55
2023-07-18T10:26:12.442Z,31.18
2023-07-18T10:28:44.421Z,31.27
2023-07-18T10:31:30.468Z,31.67
2023-07-18T10:34:18.104Z,31.52
2023-07-18T10:36:58.613Z,31.31
2023-07-18T10:39:42.235Z,31.43
2023-07-18T10:42:11.751Z,31.38
2023-07-18T10:44:45.483Z,31.45
2023-07-18T10:47:15.058Z,31.66
2023-07-18T10:49:46.506Z,31.76
2023-07-18T10:52:15.613Z,31.80
2023-07-18T10:54:52.756Z,32.01
2023-07-18T10:57:27.495Z,31.85
2023-07-18T10:59:56.316Z,32.00
2023-07-18T11:02:37.088Z,31.96
2023-07-18T11:05:12.203Z,32.23
2023-07-18T11:07:42.296Z,32.55
2023-07-18T11:10:15.865Z,32.25
2023-07-18T11:12:45.284Z,32.18
2023-07-18T11:15:16.180Z,32.45
2023-07-18T11:17:45.460Z,32.46
2023-07-18T11:20:19.794Z,32.55
2023-07-18T11:22:48.544Z,32.43
2023-07-18T11:25:21.934Z,32.74
2023-07-18T11:27:51.937Z,32.61
2023-07-18T11:30:29.989Z,32.75
2023-07-18T11:33:03.986Z,32.98
2023-07-18T11:35:32.388Z,33.11
2023-07-18T11:38:01.960Z,32.85
2023-07-18T11:40:32.202Z,32.78
2023-07-18T11:43:02.286Z,33.23
2023-07-18T11:45:34.165Z,33.31
2023-07-18T11:48:05.309Z,33.28
2023-07-18T11:50:34.084Z,33.16
2023-07-18T11:53:05.548Z,33.23
2023-07-18T11:55:36.479Z,33.53
2023-07-18T11:58:09.386Z,34.05
2023-07-18T12:00:37.943Z,34.11
2023-07-18T12:03:10.256Z,34.32
2023-07-18T12:05:39.088Z,34.19
2023-07-18T12:08:14.904Z,33.78
2023-07-18T12:10:52.990Z,34.03
2023-07-18T12:13:28.812Z,34.18
2023-07-18T12:16:03.881Z,34.54
2023-07-18T12:18:37.294Z,34.44
2023-07-18T12:21:06.397Z,34.52
2023-07-18T12:23:39.897Z,34.45
2023-07-18T12:26:10.513Z,34.52
2023-07-18T12:28:43.652Z,34.84
2023-07-18T12:31:17.386Z,34.83
2023-07-18T12:33:54.581Z,34.87
2023-07-18T12:36:23.793Z,35.11
2023-07-18T12:38:55.463Z,34.80
2023-07-18T12:41:48.248Z,35.00
2023-07-18T12:44:18.842Z,35.29
2023-07-18T12:46:51.651Z,35.84
2023-07-18T12:51:52.754Z,35.89
2023-07-18T12:54:21.771Z,35.84
2023-07-18T12:56:56.924Z,35.56
2023-07-18T12:59:26.343Z,35.55
2023-07-18T13:01:54.730Z,35.35
2023-07-18T13:04:23.546Z,35.83
2023-07-18T13:06:54.821Z,36.06
2023-07-18T13:09:23.508Z,35.78
2023-07-18T13:12:00.808Z,35.89
2023-07-18T13:14:29.922Z,35.55
2023-07-18T13:16:59.699Z,35.70
2023-07-18T13:19:28.267Z,36.23
2023-07-18T13:22:03.671Z,36.27
2023-07-18T13:24:32.645Z,36.55
2023-07-18T13:27:04.416Z,36.64
2023-07-18T13:29:33.061Z,36.63
2023-07-18T13:32:02.112Z,36.63
2023-07-18T13:34:31.162Z,36.77
2023-07-18T13:37:02.481Z,37.06
2023-07-18T13:39:30.912Z,37.19
2023-07-18T13:42:02.050Z,36.38
2023-07-18T13:44:32.470Z,36.71
2023-07-18T13:47:07.618Z,36.55
2023-07-18T13:49:49.876Z,36.74
2023-07-18T13:52:21.304Z,37.00
2023-07-18T13:54:54.592Z,37.08
2023-07-18T13:57:23.993Z,36.71
2023-07-18T13:59:54.010Z,36.82
2023-07-18T14:02:22.657Z,36.80
2023-07-18T14:04:54.306Z,36.86
2023-07-18T14:07:22.806Z,36.95
2023-07-18T14:09:52.726Z,36.69
2023-07-18T14:12:22.414Z,37.03
2023-07-18T14:14:51.592Z,37.07
2023-07-18T14:17:24.513Z,37.28
2023-07-18T14:20:00.255Z,37.83
2023-07-18T14:22:29.431Z,38.20
2023-07-18T14:24:58.407Z,38.56
2023-07-18T14:27:27.106Z,38.95
2023-07-18T14:29:57.338Z,38.96
2023-07-18T14:32:28.267Z,39.13
2023-07-18T14:35:04.025Z,38.80
2023-07-18T14:37:32.831Z,38.43
2023-07-18T14:40:05.133Z,37.93
2023-07-18T14:42:36.840Z,38.11
2023-07-18T14:45:08.880Z,37.96
2023-07-18T14:47:40.991Z,38.20
2023-07-18T14:50:14.018Z,38.19
2023-07-18T14:52:49.541Z,38.58
2023-07-18T14:55:21.285Z,38.58
2023-07-18T14:57:50.361Z,38.71
2023-07-18T15:00:20.562Z,38.73
2023-07-18T15:02:52.872Z,38.61
2023-07-18T15:05:21.801Z,38.80
2023-07-18T15:07:52.862Z,39.21
2023-07-18T15:10:22.190Z,39.54
2023-07-18T15:12:56.915Z,39.72
2023-07-18T15:15:25.604Z,40.12
2023-07-18T15:17:59.369Z,40.13
2023-07-18T15:20:28.790Z,39.91
2023-07-18T15:22:57.530Z,39.86
2023-07-18T15:25:27.210Z,39.84
2023-07-18T15:27:57.609Z,39.94
2023-07-18T15:30:26.169Z,39.27
2023-07-18T15:32:56.972Z,39.19
2023-07-18T15:35:29.849Z,39.33
2023-07-18T15:38:02.166Z,39.25
2023-07-18T15:40:31.183Z,39.05
2023-07-18T15:43:02.318Z,39.13
2023-07-18T15:45:31.239Z,39.38
2023-07-18T15:48:00.864Z,39.67
2023-07-18T15:50:34.323Z,39.62
2023-07-18T15:53:04.610Z,38.74
2023-07-18T15:55:33.652Z,38.47
2023-07-18T15:58:02.609Z,38.35
2023-07-18T16:00:34.167Z,38.20
2023-07-18T16:03:04.582Z,38.41
2023-07-18T16:05:36.428Z,38.12
2023-07-18T16:08:10.328Z,38.33
2023-07-18T16:10:38.975Z,38.42
2023-07-18T16:13:11.763Z,38.68
2023-07-18T16:15:40.578Z,38.82
2023-07-18T16:18:09.896Z,39.24
2023-07-18T16:20:40.920Z,39.41
2023-07-18T16:23:18.060Z,39.54
2023-07-18T16:25:46.462Z,39.44
2023-07-18T16:28:18.226Z,39.41
2023-07-18T16:30:47.041Z,39.16
2023-07-18T16:33:16.842Z,39.03
2023-07-18T16:35:48.847Z,38.52
2023-07-18T16:38:19.581Z,38.36
2023-07-18T16:40:49.174Z,37.73
2023-07-18T16:43:21.191Z,37.73
2023-07-18T16:45:51.965Z,37.45
2023-07-18T16:48:21.817Z,37.21
2023-07-18T16:50:52.591Z,36.97
2023-07-18T16:53:25.306Z,36.36
2023-07-18T16:55:54.836Z,35.94
2023-07-18T16:58:24.040Z,35.97
2023-07-18T17:00:52.808Z,35.65
2023-07-18T17:03:23.885Z,35.36
2023-07-18T17:05:55.619Z,35.29
2023-07-18T17:08:29.809Z,35.12
2023-07-18T17:10:59.458Z,34.79
2023-07-18T17:13:34.197Z,34.61
2023-07-18T17:16:11.126Z,34.63
2023-07-18T17:18:41.862Z,34.41
2023-07-18T17:21:12.778Z,34.26
2023-07-18T17:23:44.480Z,34.17
2023-07-18T17:26:23.743Z,33.90
2023-07-18T17:28:56.425Z,33.86
2023-07-18T17:31:40.252Z,33.73
2023-07-18T17:34:09.500Z,33.68
2023-07-18T17:36:42.352Z,33.61
2023-07-18T17:39:11.548Z,33.42
2023-07-18T17:41:41.164Z,33.34
2023-07-18T17:44:11.702Z,33.29
2023-07-18T17:46:42.341Z,33.16
2023-07-18T17:49:11.914Z,33.08
2023-07-18T17:51:47.577Z,33.06
2023-07-18T17:54:20.090Z,32.75
2023-07-18T17:56:54.660Z,33.00
2023-07-18T17:59:30.890Z,32.76
2023-07-18T18:02:03.309Z,32.82
2023-07-18T18:04:38.704Z,32.71
2023-07-18T18:07:13.748Z,32.47
2023-07-18T18:09:44.130Z,32.47
2023-07-18T18:12:20.441Z,32.42
2023-07-18T18:14:58.522Z,32.49
2023-07-18T18:17:27.560Z,32.29
2023-07-18T18:20:01.601Z,32.54
2023-07-18T18:22:38.558Z,32.38
2023-07-18T18:25:08.480Z,32.19
2023-07-18T18:27:43.433Z,32.29
2023-07-18T18:30:25.667Z,32.31
2023-07-18T18:32:59.698Z,32.19
2023-07-18T18:35:34.395Z,32.03
2023-07-18T18:38:08.158Z,32.24
2023-07-18T18:40:47.241Z,31.99
2023-07-18T18:43:16.313Z,32.00
2023-07-18T18:45:50.836Z,32.13
2023-07-18T18:48:22.003Z,32.04
2023-07-18T18:51:01.092Z,31.88
2023-07-18T18:53:44.362Z,31.88
2023-07-18T18:56:33.467Z,31.91
2023-07-18T18:59:05.160Z,31.94
2023-07-18T19:01:47.604Z,31.84
2023-07-18T19:04:16.690Z,31.53
2023-07-18T19:06:50.716Z,31.53
2023-07-18T19:09:29.145Z,31.45
2023-07-18T19:12:07.173Z,31.20
2023-07-18T19:14:37.258Z,31.17
2023-07-18T19:17:09.339Z,31.16
2023-07-18T19:19:50.681Z,31.04
2023-07-18T19:22:22.702Z,31.35
2023-07-18T19:25:05.083Z,31.40
2023-07-18T19:27:45.212Z,31.35
2023-07-18T19:30:16.986Z,31.28
2023-07-18T19:32:50.241Z,31.15
2023-07-18T19:35:23.211Z,31.09
2023-07-18T19:37:59.059Z,30.94
2023-07-18T19:40:31.681Z,31.01
2023-07-18T19:43:01.973Z,31.04
2023-07-18T19:45:31.724Z,30.90
2023-07-18T19:48:06.107Z,30.87
2023-07-18T19:50:40.650Z,30.88
2023-07-18T19:53:13.057Z,30.86
2023-07-18T19:55:49.103Z,30.71
2023-07-18T19:58:19.431Z,30.74
2023-07-18T20:00:56.948Z,30.67
2023-07-18T20:03:40.886Z,30.68
2023-07-18T20:06:18.651Z,30.60
2023-07-18T20:08:59.772Z,30.58
2023-07-18T20:11:36.113Z,30.37
2023-07-18T20:14:06.400Z,30.54
2023-07-18T20:16:38.055Z,30.43
2023-07-18T20:19:06.816Z,30.30
2023-07-18T20:21:43.359Z,30.22
2023-07-18T20:24:13.172Z,30.26
2023-07-18T20:26:43.953Z,30.30
2023-07-18T20:29:13.326Z,30.28
2023-07-18T20:31:44.256Z,30.16
2023-07-18T20:34:13.707Z,30.12
2023-07-18T20:36:43.878Z,30.18
2023-07-18T20:39:15.216Z,30.09
2023-07-18T20:41:47.936Z,30.06
2023-07-18T20:44:17.656Z,29.78
2023-07-18T20:46:48.484Z,29.89
2023-07-18T20:49:18.567Z,30.01
2023-07-18T20:51:49.468Z,29.93
2023-07-18T20:54:31.247Z,30.00
2023-07-18T20:57:01.577Z,29.93
2023-07-18T20:59:33.156Z,29.65
2023-07-18T21:02:02.015Z,29.72
2023-07-18T21:04:31.928Z,29.44
2023-07-18T21:07:01.445Z,29.53
2023-07-18T21:09:33.772Z,29.54
2023-07-18T21:12:04.699Z,29.54
2023-07-18T21:14:35.370Z,29.61
2023-07-18T21:17:04.804Z,29.40
2023-07-18T21:19:37.790Z,29.48
2023-07-18T21:22:06.917Z,29.43
2023-07-18T21:24:38.790Z,29.36
2023-07-18T21:27:10.726Z,29.39
2023-07-18T21:29:39.718Z,29.30
2023-07-18T21:32:09.082Z,29.07
2023-07-18T21:34:41.149Z,29.20
2023-07-18T21:37:10.942Z,29.26
2023-07-18T21:39:43.063Z,29.21
2023-07-18T21:42:13.355Z,29.20
2023-07-18T21:44:44.969Z,28.99
2023-07-18T21:47:14.551Z,28.88
2023-07-18T21:49:49.211Z,28.74
2023-07-18T21:52:21.072Z,28.84
2023-07-18T21:54:54.114Z,28.93
2023-07-18T21:57:26.961Z,28.82
2023-07-18T21:59:55.418Z,28.76
2023-07-18T22:02:33.051Z,28.75
2023-07-18T22:05:02.270Z,28.62
2023-07-18T22:07:32.175Z,28.63
2023-07-18T22:10:01.002Z,28.57
2023-07-18T22:12:31.962Z,28.54
2023-07-18T22:15:00.296Z,28.61
2023-07-18T22:17:35.055Z,28.58
2023-07-18T22:20:04.345Z,28.53
2023-07-18T22:22:33.437Z,28.47
2023-07-18T22:25:01.972Z,28.44
2023-07-18T22:27:36.432Z,28.32
2023-07-18T22:30:05.238Z,28.41
2023-07-18T22:32:41.046Z,28.47
2023-07-18T22:35:10.506Z,28.36
2023-07-18T22:37:40.986Z,28.41
2023-07-18T22:40:10.246Z,28.37
2023-07-18T22:42:40.911Z,28.28
2023-07-18T22:45:11.309Z,28.35
2023-07-18T22:47:48.861Z,28.37
2023-07-18T22:52:52.360Z,28.20
2023-07-18T22:55:27.494Z,28.35
2023-07-18T22:57:58.091Z,28.28
2023-07-18T23:00:28.456Z,28.19
2023-07-18T23:02:57.985Z,28.18
2023-07-18T23:05:29.725Z,28.11
2023-07-18T23:07:59.337Z,28.02
2023-07-18T23:10:31.833Z,28.07
2023-07-18T23:13:02.324Z,28.00
2023-07-18T23:15:31.313Z,28.08
2023-07-18T23:18:00.399Z,28.04
2023-07-18T23:20:34.332Z,27.83
2023-07-18T23:23:04.572Z,27.85
2023-07-18T23:25:34.162Z,27.77
2023-07-18T23:28:06.136Z,27.79
2023-07-18T23:30:37.298Z,27.72
2023-07-18T23:33:06.261Z,27.70
2023-07-18T23:35:37.786Z,27.64
2023-07-18T23:38:06.805Z,27.59
2023-07-18T23:40:38.365Z,27.50
2023-07-18T23:43:10.680Z,27.55
2023-07-18T23:45:40.351Z,27.53
2023-07-18T23:48:09.407Z,27.40
2023-07-18T23:50:44.024Z,27.36
2023-07-18T23:53:13.271Z,27.27
2023-07-18T23:55:43.905Z,27.16
2023-07-18T23:58:14.733Z,26.99
